createdAt,value
2023-12-22T00:02:46.541Z,94781.20
2023-12-22T00:05:49.595Z,94790.58
2023-12-22T00:08:52.778Z,94797.79
2023-12-22T00:11:55.857Z,94807.80
2023-12-22T00:14:58.890Z,94801.23
2023-12-22T00:18:01.919Z,94800.84
2023-12-22T00:21:05.316Z,94803.48
2023-12-22T00:24:08.454Z,94802.92
2023-12-22T00:27:11.509Z,94796.83
2023-12-22T00:30:15.318Z,94790.98
2023-12-22T00:33:18.432Z,94807.73
2023-12-22T00:36:25.488Z,94820.41
2023-12-22T00:39:28.665Z,94821.06
2023-12-22T00:42:31.667Z,94821.69
2023-12-22T00:45:34.610Z,94829.11
2023-12-22T00:48:37.745Z,94840.77
2023-12-22T00:51:40.916Z,94846.09
2023-12-22T00:54:44.003Z,94858.42
2023-12-22T00:57:47.339Z,94871.86
2023-12-22T01:00:50.577Z,94880.03
2023-12-22T01:03:53.700Z,94891.67
2023-12-22T01:06:56.884Z,94896.98
2023-12-22T01:10:04.895Z,94907.70
2023-12-22T01:13:08.262Z,94913.27
2023-12-22T01:16:11.911Z,94920.95
2023-12-22T01:19:15.071Z,94929.48
2023-12-22T01:22:18.387Z,94923.63
2023-12-22T01:25:21.803Z,94930.52
2023-12-22T01:28:25.992Z,94932.84
2023-12-22T01:31:29.431Z,94932.17
2023-12-22T01:34:33.265Z,94924.05
2023-12-22T01:37:39.227Z,94925.23
2023-12-22T01:40:42.591Z,94931.41
2023-12-22T01:43:45.917Z,94936.49
2023-12-22T01:46:51.136Z,94941.09
2023-12-22T01:49:54.665Z,94938.27
2023-12-22T01:52:58.062Z,94937.48
2023-12-22T01:56:06.170Z,94950.64
2023-12-22T01:59:10.028Z,94953.79
2023-12-22T02:02:13.434Z,94960.90
2023-12-22T02:05:16.550Z,94971.98
2023-12-22T02:08:20.070Z,94966.91
2023-12-22T02:11:23.170Z,94961.73
2023-12-22T02:14:26.765Z,94979.77
2023-12-22T02:17:41.850Z,94981.81
2023-12-22T02:20:45.544Z,94982.44
2023-12-22T02:23:49.167Z,94980.47
2023-12-22T02:26:52.970Z,94976.39
2023-12-22T02:30:07.579Z,94976.80
2023-12-22T02:33:12.344Z,94985.80
2023-12-22T02:36:18.054Z,94989.71
2023-12-22T02:39:22.051Z,94980.33
2023-12-22T02:42:31.177Z,94982.56
2023-12-22T02:45:34.580Z,94982.52
2023-12-22T02:48:37.813Z,94980.98
2023-12-22T02:51:41.132Z,94981.03
2023-12-22T02:55:04.534Z,94983.21
2023-12-22T02:58:07.830Z,94978.94
2023-12-22T03:01:33.744Z,94974.77
2023-12-22T03:04:37.124Z,94976.60
2023-12-22T03:07:40.166Z,94981.83
2023-12-22T03:10:43.196Z,94984.86
2023-12-22T03:13:47.201Z,94984.64
2023-12-22T03:16:50.099Z,94983.52
2023-12-22T03:19:53.102Z,94983.54
2023-12-22T03:22:56.020Z,94975.95
2023-12-22T03:25:58.941Z,94977.75
2023-12-22T03:29:01.864Z,94979.80
2023-12-22T03:32:05.210Z,94977.95
2023-12-22T03:35:08.239Z,94983.23
2023-12-22T03:38:11.214Z,94977.52
2023-12-22T03:41:14.451Z,94974.45
2023-12-22T03:44:17.350Z,94979.66
2023-12-22T03:47:20.263Z,94986.60
2023-12-22T03:50:23.214Z,94987.22
2023-12-22T03:53:26.068Z,94973.01
2023-12-22T03:56:28.907Z,94954.42
2023-12-22T03:59:31.742Z,94960.80
2023-12-22T04:02:34.728Z,94960.38
2023-12-22T04:05:38.224Z,94971.00
2023-12-22T04:08:41.128Z,94970.26
2023-12-22T04:11:44.004Z,94967.71
2023-12-22T04:14:46.883Z,94961.68
2023-12-22T04:17:51.020Z,94967.29
2023-12-22T04:20:56.524Z,94967.46
2023-12-22T04:24:20.734Z,94958.90
2023-12-22T04:27:23.662Z,94958.52
2023-12-22T04:30:29.960Z,94962.92
2023-12-22T04:33:34.185Z,94960.12
2023-12-22T04:36:37.333Z,94960.28
2023-12-22T04:39:40.182Z,94968.58
2023-12-22T04:42:43.426Z,94970.55
2023-12-22T04:45:46.249Z,94973.20
2023-12-22T04:48:49.194Z,94966.57
2023-12-22T04:51:52.079Z,94971.11
2023-12-22T04:54:55.741Z,94967.69
2023-12-22T04:57:58.720Z,94966.11
2023-12-22T05:01:01.694Z,94963.23
2023-12-22T05:04:04.710Z,94960.98
2023-12-22T05:07:08.277Z,94961.94
2023-12-22T05:10:11.197Z,94968.85
2023-12-22T05:13:14.052Z,94965.05
2023-12-22T05:16:17.478Z,94967.08
2023-12-22T05:19:20.500Z,94984.20
2023-12-22T05:22:23.462Z,94999.20
2023-12-22T05:25:26.308Z,95006.98
2023-12-22T05:28:29.233Z,95001.46
2023-12-22T05:31:34.084Z,95010.11
2023-12-22T05:34:38.227Z,95018.74
2023-12-22T05:37:41.166Z,95023.81
2023-12-22T05:40:44.114Z,95026.39
2023-12-22T05:43:47.060Z,95031.44
2023-12-22T05:46:49.997Z,95042.60
2023-12-22T05:49:53.026Z,95036.70
2023-12-22T05:52:56.053Z,95038.83
2023-12-22T05:55:59.150Z,95057.11
2023-12-22T05:59:02.294Z,95060.30
2023-12-22T06:02:05.254Z,95048.20
2023-12-22T06:05:08.626Z,95051.54
2023-12-22T06:08:11.615Z,95055.20
2023-12-22T06:11:15.216Z,95057.70
2023-12-22T06:14:18.215Z,95056.18
2023-12-22T06:17:21.107Z,95061.25
2023-12-22T06:20:23.966Z,95056.48
2023-12-22T06:23:26.840Z,95061.14
2023-12-22T06:26:29.667Z,95062.13
2023-12-22T06:29:32.894Z,95061.41
2023-12-22T06:32:35.958Z,95057.45
2023-12-22T06:35:39.010Z,95051.65
2023-12-22T06:38:43.046Z,95046.40
2023-12-22T06:41:45.890Z,95060.68
2023-12-22T06:44:48.727Z,95066.04
2023-12-22T06:47:51.908Z,95073.16
2023-12-22T06:50:55.008Z,95076.45
2023-12-22T06:53:58.716Z,95076.69
2023-12-22T06:57:02.022Z,95084.46
2023-12-22T07:00:06.135Z,95083.17
2023-12-22T07:03:09.372Z,95081.66
2023-12-22T07:06:12.744Z,95083.66
2023-12-22T07:09:15.697Z,95086.78
2023-12-22T07:12:18.826Z,95090.75
2023-12-22T07:15:22.598Z,95084.77
2023-12-22T07:18:26.630Z,95087.98
2023-12-22T07:21:29.717Z,95081.73
2023-12-22T07:24:32.591Z,95084.33
2023-12-22T07:27:35.454Z,95093.52
2023-12-22T07:30:38.385Z,95090.88
2023-12-22T07:33:41.860Z,95092.86
2023-12-22T07:36:51.017Z,95092.39
2023-12-22T07:39:59.169Z,95094.92
2023-12-22T07:43:02.398Z,95104.79
2023-12-22T07:46:05.266Z,95119.35
2023-12-22T07:49:08.311Z,95113.10
2023-12-22T07:52:11.750Z,95121.02
2023-12-22T07:55:15.026Z,95117.75
2023-12-22T07:58:19.068Z,95114.74
2023-12-22T08:01:22.042Z,95110.23
2023-12-22T08:04:25.101Z,95115.48
2023-12-22T08:07:28.021Z,95121.16
2023-12-22T08:10:30.945Z,95118.79
2023-12-22T08:13:34.092Z,95117.38
2023-12-22T08:16:37.150Z,95121.93
2023-12-22T08:19:45.807Z,95145.04
2023-12-22T08:22:52.790Z,95148.53
2023-12-22T08:25:59.113Z,95157.90
2023-12-22T08:29:02.025Z,95173.70
2023-12-22T08:32:05.412Z,95179.55
2023-12-22T08:35:09.319Z,95164.08
2023-12-22T08:38:14.654Z,95166.58
2023-12-22T08:41:17.838Z,95168.34
2023-12-22T08:44:20.975Z,95162.82
2023-12-22T08:47:23.855Z,95154.71
2023-12-22T08:50:27.125Z,95152.35
2023-12-22T08:53:34.785Z,95156.26
2023-12-22T08:56:38.254Z,95148.04
2023-12-22T08:59:41.064Z,95150.96
2023-12-22T09:02:44.090Z,95151.23
2023-12-22T09:05:48.322Z,95139.19
2023-12-22T09:08:51.590Z,95141.46
2023-12-22T09:11:54.848Z,95139.80
2023-12-22T09:14:59.460Z,95131.38
2023-12-22T09:18:02.716Z,95127.52
2023-12-22T09:21:05.603Z,95130.01
2023-12-22T09:24:08.499Z,95130.86
2023-12-22T09:27:11.472Z,95124.73
2023-12-22T09:30:14.466Z,95126.89
2023-12-22T09:33:17.768Z,95115.09
2023-12-22T09:36:20.982Z,95110.73
2023-12-22T09:39:23.960Z,95103.00
2023-12-22T09:42:27.189Z,95104.86
2023-12-22T09:45:32.108Z,95095.23
2023-12-22T09:48:39.189Z,95091.90
2023-12-22T09:51:44.149Z,95096.67
2023-12-22T09:54:49.109Z,95096.31
2023-12-22T09:57:53.411Z,95091.69
2023-12-22T10:00:57.953Z,95089.83
2023-12-22T10:04:01.138Z,95096.87
2023-12-22T10:07:05.486Z,95100.19
2023-12-22T10:10:09.703Z,95110.36
2023-12-22T10:13:13.663Z,95106.75
2023-12-22T10:16:16.685Z,95105.05
2023-12-22T10:19:23.529Z,95102.91
2023-12-22T10:22:26.596Z,95087.44
2023-12-22T10:25:33.759Z,95094.98
2023-12-22T10:28:36.759Z,95100.52
2023-12-22T10:31:43.031Z,95109.41
2023-12-22T10:34:46.021Z,95086.99
2023-12-22T10:37:49.633Z,95094.98
2023-12-22T10:40:52.842Z,95092.36
2023-12-22T10:43:55.916Z,95085.13
2023-12-22T10:46:59.557Z,95079.89
2023-12-22T10:50:06.199Z,95078.50
2023-12-22T10:53:09.181Z,95077.31
2023-12-22T10:56:13.264Z,95069.80
2023-12-22T10:59:24.761Z,95072.57
2023-12-22T11:02:34.102Z,95072.48
2023-12-22T11:05:38.183Z,95079.21
2023-12-22T11:08:43.014Z,95076.86
2023-12-22T11:11:47.604Z,95074.60
2023-12-22T11:14:52.385Z,95072.52
2023-12-22T11:17:57.947Z,95071.19
2023-12-22T11:21:03.574Z,95054.48
2023-12-22T11:24:08.166Z,95059.77
2023-12-22T11:27:12.996Z,95061.82
2023-12-22T11:30:16.325Z,95050.71
2023-12-22T11:33:19.992Z,95055.29
2023-12-22T11:36:24.397Z,95053.85
2023-12-22T11:39:27.408Z,95053.35
2023-12-22T11:42:39.643Z,95062.45
2023-12-22T11:45:44.200Z,95054.68
2023-12-22T11:48:51.675Z,95072.77
2023-12-22T11:51:54.612Z,95072.25
2023-12-22T11:54:58.023Z,95077.77
2023-12-22T11:58:39.462Z,95074.17
2023-12-22T12:01:42.646Z,95082.98
2023-12-22T12:04:48.967Z,95078.16
2023-12-22T12:07:52.440Z,95078.95
2023-12-22T12:10:56.038Z,95072.16
2023-12-22T12:14:12.923Z,95074.11
2023-12-22T12:17:19.341Z,95069.95
2023-12-22T12:20:23.465Z,95066.33
2023-12-22T12:23:27.656Z,95060.33
2023-12-22T12:26:30.910Z,95057.26
2023-12-22T12:29:34.557Z,95052.12
2023-12-22T12:32:37.868Z,95050.71
2023-12-22T12:35:45.304Z,95038.02
2023-12-22T12:39:09.737Z,95033.65
2023-12-22T12:42:16.800Z,95042.29
2023-12-22T12:45:27.322Z,95042.98
2023-12-22T12:48:30.478Z,95051.69
2023-12-22T12:51:39.017Z,95067.10
2023-12-22T12:54:43.000Z,95073.40
2023-12-22T12:57:46.001Z,95084.44
2023-12-22T13:00:49.092Z,95084.92
2023-12-22T13:04:26.154Z,95089.02
2023-12-22T13:07:29.368Z,95084.86
2023-12-22T13:10:33.544Z,95079.24
2023-12-22T13:13:45.817Z,95087.27
2023-12-22T13:16:48.782Z,95099.19
2023-12-22T13:19:52.118Z,95100.40
2023-12-22T13:22:56.227Z,95101.05
2023-12-22T13:25:59.184Z,95100.60
2023-12-22T13:29:02.460Z,95101.48
2023-12-22T13:32:05.834Z,95103.66
2023-12-22T13:35:10.053Z,95097.10
2023-12-22T13:38:13.215Z,95096.33
2023-12-22T13:41:20.434Z,95088.39
2023-12-22T13:44:23.489Z,95098.08
2023-12-22T13:47:28.141Z,95108.09
2023-12-22T13:50:32.010Z,95111.71
2023-12-22T13:53:36.896Z,95107.61
2023-12-22T13:56:43.951Z,95115.19
2023-12-22T13:59:47.154Z,95118.88
2023-12-22T14:02:50.854Z,95121.92
2023-12-22T14:05:54.579Z,95120.83
2023-12-22T14:08:58.279Z,95116.17
2023-12-22T14:12:05.645Z,95111.14
2023-12-22T14:15:12.998Z,95108.05
2023-12-22T14:18:15.948Z,95110.22
2023-12-22T14:21:19.665Z,95108.91
2023-12-22T14:24:22.535Z,95115.04
2023-12-22T14:27:25.524Z,95112.60
2023-12-22T14:30:28.575Z,95121.14
2023-12-22T14:33:31.565Z,95122.63
2023-12-22T14:36:34.480Z,95128.54
2023-12-22T14:39:37.601Z,95130.29
2023-12-22T14:42:40.502Z,95138.69
2023-12-22T14:45:43.689Z,95140.63
2023-12-22T14:48:46.793Z,95151.45
2023-12-22T14:51:55.051Z,95146.30
2023-12-22T14:54:58.307Z,95145.59
2023-12-22T14:58:01.183Z,95139.42
2023-12-22T15:01:04.415Z,95132.88
2023-12-22T15:04:08.291Z,95136.23
2023-12-22T15:07:11.382Z,95135.08
2023-12-22T15:10:14.500Z,95132.03
2023-12-22T15:13:17.548Z,95135.25
2023-12-22T15:16:22.242Z,95125.64
2023-12-22T15:19:25.929Z,95131.26
2023-12-22T15:22:28.869Z,95129.30
2023-12-22T15:25:31.769Z,95133.70
2023-12-22T15:28:35.066Z,95133.95
2023-12-22T15:31:38.805Z,95133.56
2023-12-22T15:34:45.091Z,95137.90
2023-12-22T15:37:48.004Z,95132.89
2023-12-22T15:40:51.109Z,95138.31
2023-12-22T15:43:54.200Z,95132.90
2023-12-22T15:46:57.105Z,95146.39
2023-12-22T15:50:00.092Z,95148.19
2023-12-22T15:53:03.196Z,95143.94
2023-12-22T15:56:07.469Z,95145.50
2023-12-22T15:59:12.528Z,95133.36
2023-12-22T16:02:17.099Z,95136.91
2023-12-22T16:05:20.410Z,95145.50
2023-12-22T16:08:23.933Z,95158.23
2023-12-22T16:11:26.792Z,95155.19
2023-12-22T16:14:30.133Z,95148.55
2023-12-22T16:17:33.021Z,95142.30
2023-12-22T16:20:36.774Z,95148.90
2023-12-22T16:23:39.800Z,95152.17
2023-12-22T16:26:44.612Z,95160.89
2023-12-22T16:29:48.581Z,95151.70
2023-12-22T16:32:52.151Z,95151.48
2023-12-22T16:35:55.976Z,95170.69
2023-12-22T16:38:59.111Z,95191.63
2023-12-22T16:42:02.190Z,95193.30
2023-12-22T16:45:07.418Z,95194.10
2023-12-22T16:48:10.319Z,95193.55
2023-12-22T16:51:16.091Z,95204.60
2023-12-22T16:54:18.959Z,95205.12
2023-12-22T16:57:22.047Z,95205.44
2023-12-22T17:00:26.787Z,95210.29
2023-12-22T17:03:30.382Z,95210.02
2023-12-22T17:06:34.712Z,95212.09
2023-12-22T17:09:37.967Z,95201.89
2023-12-22T17:12:40.919Z,95187.14
2023-12-22T17:15:44.156Z,95180.27
2023-12-22T17:18:47.267Z,95176.96
2023-12-22T17:21:50.133Z,95179.27
2023-12-22T17:24:55.597Z,95174.03
2023-12-22T17:27:58.605Z,95164.06
2023-12-22T17:31:03.559Z,95151.28
2023-12-22T17:34:07.649Z,95164.01
2023-12-22T17:37:11.605Z,95169.73
2023-12-22T17:40:14.698Z,95171.98
2023-12-22T17:43:18.186Z,95162.54
2023-12-22T17:46:21.073Z,95165.45
2023-12-22T17:49:23.939Z,95165.08
2023-12-22T17:52:26.755Z,95165.05
2023-12-22T17:55:29.623Z,95179.67
2023-12-22T17:58:32.570Z,95180.78
2023-12-22T18:01:35.567Z,95181.21
2023-12-22T18:04:39.230Z,95200.13
2023-12-22T18:07:42.086Z,95199.41
2023-12-22T18:10:45.573Z,95199.84
2023-12-22T18:13:53.358Z,95205.23
2023-12-22T18:16:56.347Z,95206.48
2023-12-22T18:20:00.161Z,95205.44
2023-12-22T18:23:03.493Z,95201.78
2023-12-22T18:26:06.850Z,95206.20
2023-12-22T18:29:10.022Z,95216.60
2023-12-22T18:33:04.777Z,95219.91
2023-12-22T18:36:08.436Z,95213.83
2023-12-22T18:39:13.046Z,95205.87
2023-12-22T18:42:15.899Z,95210.55
2023-12-22T18:45:18.864Z,95207.61
2023-12-22T18:48:21.904Z,95205.02
2023-12-22T18:51:24.929Z,95186.19
2023-12-22T18:54:27.803Z,95189.56
2023-12-22T18:57:30.898Z,95200.05
2023-12-22T19:00:33.831Z,95189.66
2023-12-22T19:03:37.336Z,95187.34
2023-12-22T19:06:40.442Z,95195.67
2023-12-22T19:09:46.455Z,95205.39
2023-12-22T19:12:50.951Z,95188.42
2023-12-22T19:15:54.754Z,95178.86
2023-12-22T19:18:57.684Z,95189.80
2023-12-22T19:22:01.820Z,95192.09
2023-12-22T19:25:04.976Z,95195.27
2023-12-22T19:28:07.958Z,95195.70
2023-12-22T19:31:10.912Z,95203.85
2023-12-22T19:34:13.928Z,95201.69
2023-12-22T19:37:19.541Z,95195.69
2023-12-22T19:40:23.026Z,95195.98
2023-12-22T19:43:26.145Z,95201.83
2023-12-22T19:46:29.224Z,95204.95
2023-12-22T19:49:32.437Z,95205.55
2023-12-22T19:52:35.950Z,95199.15
2023-12-22T19:55:39.256Z,95188.63
2023-12-22T19:58:42.249Z,95193.71
2023-12-22T20:01:46.237Z,95196.27
2023-12-22T20:04:49.484Z,95185.29
2023-12-22T20:07:52.889Z,95188.05
2023-12-22T20:10:56.266Z,95198.48
2023-12-22T20:14:00.034Z,95212.39
2023-12-22T20:17:04.979Z,95215.05
2023-12-22T20:20:10.595Z,95203.54
2023-12-22T20:23:13.988Z,95201.00
2023-12-22T20:26:17.183Z,95188.45
2023-12-22T20:29:22.819Z,95184.18
2023-12-22T20:32:27.833Z,95186.21
2023-12-22T20:35:30.916Z,95185.67
2023-12-22T20:38:34.650Z,95186.40
2023-12-22T20:41:37.988Z,95187.86
2023-12-22T20:44:41.223Z,95194.36
2023-12-22T20:47:45.961Z,95189.02
2023-12-22T20:50:49.559Z,95192.44
2023-12-22T20:53:52.532Z,95205.39
2023-12-22T20:56:55.526Z,95203.13
2023-12-22T20:59:58.760Z,95198.37
2023-12-22T21:03:02.188Z,95210.05
2023-12-22T21:06:07.431Z,95216.82
2023-12-22T21:09:10.597Z,95226.89
2023-12-22T21:12:13.561Z,95228.05
2023-12-22T21:15:16.606Z,95232.80
2023-12-22T21:18:19.534Z,95224.98
2023-12-22T21:21:22.914Z,95222.98
2023-12-22T21:24:25.842Z,95225.07
2023-12-22T21:27:28.789Z,95220.30
2023-12-22T21:30:32.681Z,95214.19
2023-12-22T21:33:37.877Z,95207.80
2023-12-22T21:36:40.949Z,95221.67
2023-12-22T21:39:43.989Z,95219.62
2023-12-22T21:42:47.644Z,95217.41
2023-12-22T21:45:51.158Z,95214.16
2023-12-22T21:48:54.121Z,95231.92
2023-12-22T21:51:57.028Z,95240.49
2023-12-22T21:55:00.773Z,95245.86
2023-12-22T21:58:03.926Z,95243.09
2023-12-22T22:01:06.792Z,95234.00
2023-12-22T22:04:09.735Z,95223.13
2023-12-22T22:07:13.837Z,95211.75
2023-12-22T22:10:16.758Z,95204.90
2023-12-22T22:13:19.689Z,95207.88
2023-12-22T22:16:22.629Z,95214.62
2023-12-22T22:19:25.701Z,95214.80
2023-12-22T22:22:29.672Z,95215.30
2023-12-22T22:25:34.592Z,95207.96
2023-12-22T22:28:41.969Z,95209.13
2023-12-22T22:31:44.952Z,95208.65
2023-12-22T22:34:47.869Z,95212.48
2023-12-22T22:37:51.025Z,95217.04
2023-12-22T22:40:54.106Z,95220.16
2023-12-22T22:43:57.076Z,95222.94
2023-12-22T22:46:59.976Z,95231.33
2023-12-22T22:50:03.588Z,95225.48
2023-12-22T22:53:10.466Z,95227.46
2023-12-22T22:56:13.528Z,95220.42
2023-12-22T22:59:16.649Z,95221.23
2023-12-22T23:02:19.626Z,95208.68
2023-12-22T23:05:23.274Z,95206.55
2023-12-22T23:08:26.258Z,95216.25
2023-12-22T23:11:29.380Z,95221.24
2023-12-22T23:14:32.263Z,95226.63
2023-12-22T23:17:35.765Z,95229.88
2023-12-22T23:20:39.648Z,95237.11
2023-12-22T23:23:42.578Z,95248.65
2023-12-22T23:26:45.494Z,95239.84
2023-12-22T23:29:48.436Z,95246.67
2023-12-22T23:32:51.390Z,95241.04
2023-12-22T23:35:54.414Z,95246.40
2023-12-22T23:38:57.306Z,95252.23
2023-12-22T23:42:00.222Z,95254.64
2023-12-22T23:45:04.619Z,95255.66
2023-12-22T23:48:07.991Z,95247.13
2023-12-22T23:51:13.029Z,95252.85
2023-12-22T23:54:15.975Z,95256.77
2023-12-22T23:57:18.805Z,95270.98
